Phippsburg, Colorado
Current Conditions -  °F | °C
As of 9:14 AM on Thursday 23 Oct 2014 (Local Time) from KSBS Reporting Station
Clear Clear  
Wind Chill: 36°   Ceiling: Unl
Heat Index: 36°   Visibility: 10mi
Dew Point: 32°   Wind: 0mph
Humidity: 85%   Direction: NA
Pressure: 30.32"   Gusts: NA
Location:  40.23°N, 106.94°W
Report Text: KSBS 231514Z AUTO 00000KT 10SM CLR 02/00 A3032 RMK AO1 T00240001
Loading
Personal Weather Stations






























Interactive Weather Map
Tropical Storm Tracking
New forecast layout! Learn more

10-Day Weather Forecast

Advertisements
Track Severe Weather on mobile